createdAt,value
2023-03-21T00:00:48.017Z,11.83
2023-03-21T00:03:16.521Z,12.77
2023-03-21T00:05:49.705Z,15.27
2023-03-21T00:08:17.567Z,11.30
2023-03-21T00:10:46.790Z,14.88
2023-03-21T00:13:15.406Z,12.83
2023-03-21T00:16:04.206Z,13.10
2023-03-21T00:18:41.670Z,12.00
2023-03-21T00:24:01.174Z,11.70
2023-03-21T00:26:30.389Z,14.47
2023-03-21T00:28:58.494Z,13.50
2023-03-21T00:31:26.369Z,14.97
2023-03-21T00:33:54.230Z,11.10
2023-03-21T00:36:25.952Z,13.13
2023-03-21T00:38:53.950Z,14.03
2023-03-21T00:41:38.970Z,12.40
2023-03-21T00:44:11.499Z,11.70
2023-03-21T00:46:47.244Z,14.50
2023-03-21T00:49:22.257Z,11.83
2023-03-21T00:51:51.579Z,13.30
2023-03-21T00:54:19.895Z,15.37
2023-03-21T00:56:47.665Z,13.48
2023-03-21T00:59:17.233Z,11.27
2023-03-21T01:01:46.550Z,13.10
2023-03-21T01:04:16.877Z,13.43
2023-03-21T01:06:45.426Z,14.30
2023-03-21T01:09:15.271Z,12.97
2023-03-21T01:11:43.391Z,12.00
2023-03-21T01:14:21.889Z,12.43
2023-03-21T01:16:53.409Z,13.17
2023-03-21T01:19:37.581Z,11.83
2023-03-21T01:22:05.646Z,12.97
2023-03-21T01:24:35.625Z,11.47
2023-03-21T01:27:05.940Z,12.00
2023-03-21T01:29:33.667Z,13.07
2023-03-21T01:32:02.752Z,13.50
2023-03-21T01:34:30.437Z,11.70
2023-03-21T01:36:58.184Z,11.50
2023-03-21T01:39:25.924Z,10.60
2023-03-21T01:41:53.661Z,14.20
2023-03-21T01:44:21.349Z,10.80
2023-03-21T01:47:04.014Z,11.90
2023-03-21T01:49:46.411Z,13.60
2023-03-21T01:52:29.696Z,12.93
2023-03-21T01:55:03.770Z,10.33
2023-03-21T01:57:45.229Z,10.90
2023-03-21T02:00:18.403Z,9.37
2023-03-21T02:02:52.560Z,11.27
2023-03-21T02:05:28.315Z,11.27
2023-03-21T02:07:56.049Z,10.53
2023-03-21T02:10:24.169Z,11.27
2023-03-21T02:12:54.925Z,10.27
2023-03-21T02:15:26.402Z,11.10
2023-03-21T02:17:57.732Z,13.00
2023-03-21T02:20:57.059Z,12.57
2023-03-21T02:24:03.894Z,9.50
2023-03-21T02:27:03.877Z,9.70
2023-03-21T02:30:04.432Z,12.43
2023-03-21T02:32:43.432Z,10.00
2023-03-21T02:35:29.659Z,12.23
2023-03-21T02:38:04.883Z,11.97
2023-03-21T02:40:36.734Z,17.17
2023-03-21T02:43:22.188Z,10.50
2023-03-21T02:45:54.497Z,9.63
2023-03-21T02:48:35.409Z,11.27
2023-03-21T02:51:13.965Z,13.13
2023-03-21T02:53:51.714Z,12.50
2023-03-21T02:56:26.040Z,8.70
2023-03-21T02:58:54.565Z,9.80
2023-03-21T03:01:25.894Z,9.97
2023-03-21T03:03:53.713Z,10.43
2023-03-21T03:06:25.564Z,11.20
2023-03-21T03:09:15.567Z,9.10
2023-03-21T03:11:45.833Z,9.20
2023-03-21T03:17:27.297Z,11.50
2023-03-21T03:20:16.385Z,10.10
2023-03-21T03:22:54.363Z,10.83
2023-03-21T03:25:41.695Z,11.60
2023-03-21T03:28:12.121Z,12.90
2023-03-21T03:30:48.888Z,9.10
2023-03-21T03:33:26.610Z,9.90
2023-03-21T03:36:05.119Z,11.47
2023-03-21T03:38:37.885Z,10.80
2023-03-21T03:41:14.654Z,12.20
2023-03-21T03:43:48.533Z,9.43
2023-03-21T03:46:19.950Z,13.53
2023-03-21T03:48:53.661Z,13.33
2023-03-21T03:51:27.135Z,12.40
2023-03-21T03:53:58.188Z,12.00
2023-03-21T03:56:28.248Z,13.93
2023-03-21T03:58:57.525Z,15.50
2023-03-21T04:01:26.595Z,13.60
2023-03-21T04:04:06.711Z,14.60
2023-03-21T04:06:39.852Z,10.30
2023-03-21T04:09:19.104Z,13.80
2023-03-21T04:11:49.633Z,17.30
2023-03-21T04:14:17.769Z,11.93
2023-03-21T04:16:45.534Z,13.43
2023-03-21T04:19:13.798Z,14.30
2023-03-21T04:21:41.478Z,11.30
2023-03-21T04:24:12.076Z,11.93
2023-03-21T04:26:39.784Z,11.80
2023-03-21T04:29:08.845Z,12.60
2023-03-21T04:31:36.609Z,14.77
2023-03-21T04:34:09.553Z,13.57
2023-03-21T04:36:42.846Z,12.40
2023-03-21T04:39:13.089Z,13.00
2023-03-21T04:41:40.987Z,14.50
2023-03-21T04:44:11.740Z,14.90
2023-03-21T04:46:40.366Z,11.97
2023-03-21T04:49:08.334Z,12.50
2023-03-21T04:51:36.912Z,15.67
2023-03-21T04:54:05.783Z,11.40
2023-03-21T04:56:34.134Z,12.70
2023-03-21T04:59:04.456Z,14.20
2023-03-21T05:01:33.961Z,12.43
2023-03-21T05:04:03.439Z,17.80
2023-03-21T05:06:32.053Z,15.53
2023-03-21T05:09:01.701Z,12.00
2023-03-21T05:11:30.749Z,12.93
2023-03-21T05:13:58.630Z,14.00
2023-03-21T05:16:26.950Z,16.00
2023-03-21T05:18:56.141Z,12.07
2023-03-21T05:21:24.434Z,15.23
2023-03-21T05:23:54.571Z,18.30
2023-03-21T05:26:23.360Z,13.77
2023-03-21T05:28:51.493Z,16.50
2023-03-21T05:31:20.306Z,15.07
2023-03-21T05:33:49.024Z,13.37
2023-03-21T05:36:18.065Z,12.67
2023-03-21T05:38:46.502Z,15.40
2023-03-21T05:41:14.447Z,12.93
2023-03-21T05:43:42.276Z,13.40
2023-03-21T05:46:10.654Z,16.80
2023-03-21T05:48:38.531Z,15.90
2023-03-21T05:51:06.751Z,12.47
2023-03-21T05:53:35.821Z,13.83
2023-03-21T05:56:03.961Z,12.33
2023-03-21T05:58:31.998Z,15.50
2023-03-21T06:01:00.359Z,13.10
2023-03-21T06:03:28.309Z,11.90
2023-03-21T06:05:56.178Z,17.07
2023-03-21T06:08:23.874Z,12.10
2023-03-21T06:10:52.962Z,12.03
2023-03-21T06:13:21.494Z,11.90
2023-03-21T06:15:49.264Z,11.77
2023-03-21T06:18:17.022Z,11.87
2023-03-21T06:20:44.811Z,12.90
2023-03-21T06:23:12.562Z,14.43
2023-03-21T06:25:40.424Z,11.13
2023-03-21T06:28:09.507Z,11.53
2023-03-21T06:30:37.233Z,11.40
2023-03-21T06:33:05.214Z,12.70
2023-03-21T06:35:32.974Z,11.47
2023-03-21T06:38:00.660Z,14.30
2023-03-21T06:40:28.357Z,13.83
2023-03-21T06:42:56.064Z,16.33
2023-03-21T06:45:25.792Z,13.20
2023-03-21T06:47:53.565Z,12.13
2023-03-21T06:50:21.310Z,13.20
2023-03-21T06:52:49.755Z,13.07
2023-03-21T06:55:19.296Z,14.80
2023-03-21T06:57:46.990Z,12.80
2023-03-21T07:00:15.549Z,11.53
2023-03-21T07:02:44.700Z,14.20
2023-03-21T07:05:12.543Z,12.77
2023-03-21T07:07:40.888Z,14.13
2023-03-21T07:10:10.676Z,12.47
2023-03-21T07:12:38.375Z,14.10
2023-03-21T07:15:08.189Z,14.10
2023-03-21T07:17:35.955Z,15.73
2023-03-21T07:20:06.662Z,11.97
2023-03-21T07:22:36.248Z,12.93
2023-03-21T07:25:05.576Z,11.60
2023-03-21T07:27:35.504Z,13.30
2023-03-21T07:30:03.960Z,12.70
2023-03-21T07:32:33.753Z,13.33
2023-03-21T07:35:01.911Z,13.50
2023-03-21T07:37:31.177Z,12.43
2023-03-21T07:39:58.989Z,15.87
2023-03-21T07:42:26.765Z,12.52
2023-03-21T07:44:55.017Z,16.47
2023-03-21T07:47:22.705Z,14.80
2023-03-21T07:49:51.121Z,11.63
2023-03-21T07:52:18.804Z,12.23
2023-03-21T07:54:47.833Z,15.30
2023-03-21T07:57:16.736Z,11.93
2023-03-21T07:59:45.520Z,12.57
2023-03-21T08:02:15.337Z,14.23
2023-03-21T08:04:43.298Z,13.77
2023-03-21T08:07:11.210Z,11.73
2023-03-21T08:09:38.982Z,15.77
2023-03-21T08:12:08.488Z,11.20
2023-03-21T08:14:36.841Z,13.83
2023-03-21T08:17:07.315Z,11.00
2023-03-21T08:19:35.559Z,12.03
2023-03-21T08:22:05.618Z,13.00
2023-03-21T08:24:34.843Z,12.53
2023-03-21T08:27:03.420Z,12.10
2023-03-21T08:29:32.545Z,14.03
2023-03-21T08:32:00.402Z,17.30
2023-03-21T08:34:31.663Z,15.97
2023-03-21T08:37:00.100Z,14.70
2023-03-21T08:39:28.401Z,13.80
2023-03-21T08:41:56.165Z,13.47
2023-03-21T08:44:25.215Z,13.53
2023-03-21T08:46:54.353Z,14.90
2023-03-21T08:49:22.044Z,11.83
2023-03-21T08:51:49.796Z,11.83
2023-03-21T08:54:23.611Z,13.43
2023-03-21T08:56:51.342Z,10.70
2023-03-21T08:59:19.028Z,10.87
2023-03-21T09:01:46.808Z,10.73
2023-03-21T09:04:18.862Z,11.57
2023-03-21T09:06:48.762Z,8.40
2023-03-21T09:09:17.943Z,9.13
2023-03-21T09:11:46.009Z,11.90
2023-03-21T09:14:13.741Z,9.43
2023-03-21T09:16:41.623Z,9.43
2023-03-21T09:19:09.587Z,11.77
2023-03-21T09:21:39.168Z,10.50
2023-03-21T09:24:07.498Z,9.70
2023-03-21T09:26:35.549Z,8.93
2023-03-21T09:29:05.793Z,10.20
2023-03-21T09:31:33.754Z,9.90
2023-03-21T09:34:01.877Z,9.03
2023-03-21T09:36:32.184Z,11.35
2023-03-21T09:39:01.605Z,12.67
2023-03-21T09:41:52.898Z,14.27
2023-03-21T09:44:32.557Z,12.50
2023-03-21T09:47:06.888Z,14.50
2023-03-21T09:49:41.406Z,21.13
2023-03-21T09:52:17.553Z,15.87
2023-03-21T09:54:47.086Z,20.20
2023-03-21T09:57:23.170Z,15.87
2023-03-21T09:59:53.540Z,18.40
2023-03-21T10:02:36.708Z,15.93
2023-03-21T10:05:12.057Z,19.30
2023-03-21T10:07:44.449Z,19.87
2023-03-21T10:10:19.573Z,21.30
2023-03-21T10:12:49.316Z,19.43
2023-03-21T10:15:19.805Z,16.30
2023-03-21T10:17:53.822Z,14.53
2023-03-21T10:20:23.786Z,20.13
2023-03-21T10:22:53.681Z,22.83
2023-03-21T10:25:26.718Z,17.47
2023-03-21T10:27:54.838Z,16.70
2023-03-21T10:30:31.106Z,15.47
2023-03-21T10:33:02.396Z,19.80
2023-03-21T10:35:32.619Z,15.60
2023-03-21T10:38:01.454Z,15.70
2023-03-21T10:40:30.723Z,18.50
2023-03-21T10:43:33.851Z,19.33
2023-03-21T10:46:07.484Z,16.10
2023-03-21T10:48:37.999Z,14.10
2023-03-21T10:51:08.361Z,18.90
2023-03-21T10:53:39.939Z,15.57
2023-03-21T10:56:12.155Z,14.17
2023-03-21T10:58:45.359Z,16.67
2023-03-21T11:01:30.374Z,14.77
2023-03-21T11:04:01.057Z,11.73
2023-03-21T11:06:31.683Z,18.23
2023-03-21T11:09:07.222Z,17.40
2023-03-21T11:11:39.687Z,14.33
2023-03-21T11:14:10.019Z,16.23
2023-03-21T11:16:41.197Z,19.30
2023-03-21T11:19:17.790Z,15.63
2023-03-21T11:21:46.304Z,14.17
2023-03-21T11:24:16.214Z,15.20
2023-03-21T11:26:48.070Z,22.00
2023-03-21T11:29:30.596Z,13.37
2023-03-21T11:32:02.583Z,12.33
2023-03-21T11:34:35.820Z,15.03
2023-03-21T11:37:04.253Z,13.07
2023-03-21T11:39:39.711Z,16.20
2023-03-21T11:42:27.624Z,16.07
2023-03-21T11:45:02.800Z,20.30
2023-03-21T11:47:31.549Z,16.33
2023-03-21T11:50:04.852Z,16.73
2023-03-21T11:52:41.185Z,17.50
2023-03-21T11:55:25.540Z,16.43
2023-03-21T11:58:13.812Z,21.17
2023-03-21T12:00:49.759Z,14.30
2023-03-21T12:03:47.573Z,16.13
2023-03-21T12:06:25.950Z,19.10
2023-03-21T12:09:11.024Z,17.40
2023-03-21T12:11:47.770Z,15.70
2023-03-21T12:14:23.998Z,19.33
2023-03-21T12:17:02.755Z,19.50
2023-03-21T12:20:11.006Z,17.83
2023-03-21T12:22:46.670Z,15.77
2023-03-21T12:25:18.538Z,17.63
2023-03-21T12:27:56.209Z,18.20
2023-03-21T12:30:39.170Z,20.63
2023-03-21T12:33:29.830Z,18.40
2023-03-21T12:36:11.310Z,20.40
2023-03-21T12:38:44.222Z,15.97
2023-03-21T12:41:24.055Z,20.00
2023-03-21T12:43:57.287Z,20.80
2023-03-21T12:46:33.373Z,23.17
2023-03-21T12:49:03.794Z,14.83
2023-03-21T12:51:34.597Z,15.87
2023-03-21T12:54:09.827Z,14.83
2023-03-21T12:56:46.809Z,15.80
2023-03-21T12:59:23.819Z,20.80
2023-03-21T13:01:56.733Z,20.23
2023-03-21T13:04:43.424Z,17.13
2023-03-21T13:07:16.647Z,14.67
2023-03-21T13:09:44.916Z,17.40
2023-03-21T13:12:44.660Z,18.03
2023-03-21T13:15:34.384Z,18.50
2023-03-21T13:18:16.663Z,19.77
2023-03-21T13:20:50.237Z,16.23
2023-03-21T13:23:19.620Z,12.07
2023-03-21T13:25:51.950Z,11.73
2023-03-21T13:28:23.490Z,14.00
2023-03-21T13:30:51.862Z,15.63
2023-03-21T13:33:29.388Z,16.77
2023-03-21T13:36:05.284Z,17.20
2023-03-21T13:38:34.838Z,13.77
2023-03-21T13:41:08.426Z,17.63
2023-03-21T13:43:43.280Z,10.80
2023-03-21T13:46:13.506Z,12.70
2023-03-21T13:49:00.272Z,14.03
2023-03-21T13:51:46.332Z,12.30
2023-03-21T13:54:31.193Z,11.23
2023-03-21T13:57:01.462Z,13.37
2023-03-21T13:59:44.157Z,21.50
2023-03-21T14:02:31.042Z,12.83
2023-03-21T14:05:06.822Z,10.30
2023-03-21T14:07:37.232Z,11.00
2023-03-21T14:10:09.510Z,11.37
2023-03-21T14:12:41.146Z,14.90
2023-03-21T14:15:17.175Z,12.57
2023-03-21T14:17:51.744Z,28.17
2023-03-21T14:20:23.625Z,13.23
2023-03-21T14:22:51.591Z,12.33
2023-03-21T14:25:21.645Z,14.30
2023-03-21T14:27:52.640Z,11.53
2023-03-21T14:30:24.385Z,13.10
2023-03-21T14:32:54.527Z,14.43
2023-03-21T14:35:24.438Z,13.77
2023-03-21T14:37:52.966Z,10.80
2023-03-21T14:40:23.630Z,12.50
2023-03-21T14:42:52.437Z,12.77
2023-03-21T14:45:22.220Z,10.53
2023-03-21T14:47:57.577Z,11.87
2023-03-21T14:50:34.684Z,14.60
2023-03-21T14:53:02.593Z,12.13
2023-03-21T14:55:30.369Z,15.37
2023-03-21T14:57:58.187Z,14.30
2023-03-21T15:00:29.237Z,16.30
2023-03-21T15:03:00.219Z,13.60
2023-03-21T15:05:32.402Z,14.17
2023-03-21T15:08:01.952Z,12.10
2023-03-21T15:10:32.581Z,12.77
2023-03-21T15:13:03.201Z,11.10
2023-03-21T15:15:32.728Z,11.27
2023-03-21T15:18:04.873Z,9.57
2023-03-21T15:20:37.503Z,12.20
2023-03-21T15:23:10.019Z,8.70
2023-03-21T15:25:39.317Z,11.57
2023-03-21T15:28:07.601Z,9.40
2023-03-21T15:30:36.013Z,12.20
2023-03-21T15:33:09.289Z,8.73
2023-03-21T15:35:41.053Z,12.77
2023-03-21T15:38:23.453Z,11.10
2023-03-21T15:40:52.029Z,14.80
2023-03-21T15:43:21.031Z,10.17
2023-03-21T15:45:50.208Z,12.17
2023-03-21T15:48:22.163Z,12.90
2023-03-21T15:50:57.101Z,10.17
2023-03-21T15:53:25.441Z,9.53
2023-03-21T15:56:01.797Z,10.80
2023-03-21T15:58:36.016Z,9.07
2023-03-21T16:01:07.198Z,12.83
2023-03-21T16:03:40.407Z,9.87
2023-03-21T16:06:19.399Z,12.10
2023-03-21T16:08:49.018Z,9.10
2023-03-21T16:11:24.337Z,10.30
2023-03-21T16:13:53.057Z,9.00
2023-03-21T16:16:23.066Z,9.53
2023-03-21T16:18:51.878Z,11.10
2023-03-21T16:21:22.310Z,9.10
2023-03-21T16:23:50.251Z,12.30
2023-03-21T16:26:19.937Z,8.77
2023-03-21T16:28:48.524Z,9.37
2023-03-21T16:31:18.030Z,9.57
2023-03-21T16:33:46.578Z,10.87
2023-03-21T16:36:15.478Z,8.10
2023-03-21T16:38:44.856Z,9.73
2023-03-21T16:41:13.797Z,10.17
2023-03-21T16:43:43.437Z,10.73
2023-03-21T16:46:15.102Z,8.33
2023-03-21T16:48:44.190Z,9.23
2023-03-21T16:51:14.781Z,12.27
2023-03-21T16:53:43.847Z,8.53
2023-03-21T16:56:16.177Z,7.23
2023-03-21T16:58:44.519Z,8.63
2023-03-21T17:01:15.602Z,10.60
2023-03-21T17:03:43.751Z,7.80
2023-03-21T17:06:15.391Z,6.70
2023-03-21T17:08:44.623Z,7.43
2023-03-21T17:11:13.592Z,7.70
2023-03-21T17:13:41.499Z,7.23
2023-03-21T17:16:11.633Z,8.50
2023-03-21T17:18:39.382Z,8.43
2023-03-21T17:21:13.332Z,6.90
2023-03-21T17:23:41.105Z,8.13
2023-03-21T17:26:10.681Z,10.83
2023-03-21T17:28:38.568Z,7.10
2023-03-21T17:31:12.820Z,6.97
2023-03-21T17:33:41.157Z,8.83
2023-03-21T17:36:14.136Z,7.67
2023-03-21T17:38:42.666Z,9.73
2023-03-21T17:41:13.312Z,6.60
2023-03-21T17:43:42.338Z,7.70
2023-03-21T17:46:12.903Z,7.17
2023-03-21T17:48:40.679Z,6.80
2023-03-21T17:51:12.683Z,8.30
2023-03-21T17:53:40.434Z,5.90
2023-03-21T17:56:14.777Z,7.17
2023-03-21T17:58:42.721Z,9.23
2023-03-21T18:01:10.581Z,7.67
2023-03-21T18:03:38.314Z,7.70
2023-03-21T18:06:06.797Z,7.00
2023-03-21T18:08:34.724Z,8.03
2023-03-21T18:11:02.469Z,8.77
2023-03-21T18:13:31.560Z,11.93
2023-03-21T18:15:59.774Z,8.43
2023-03-21T18:18:28.161Z,8.20
2023-03-21T18:20:58.023Z,8.50
2023-03-21T18:23:26.657Z,7.77
2023-03-21T18:25:54.599Z,8.60
2023-03-21T18:28:23.450Z,9.20
2023-03-21T18:31:08.655Z,9.23
2023-03-21T18:33:40.259Z,8.90
2023-03-21T18:36:08.883Z,8.03
2023-03-21T18:38:37.273Z,7.60
2023-03-21T18:41:05.321Z,9.27
2023-03-21T18:46:22.660Z,9.43
2023-03-21T18:48:51.793Z,7.10
2023-03-21T18:51:19.911Z,7.60
2023-03-21T18:53:47.714Z,6.77
2023-03-21T18:56:53.070Z,7.07
2023-03-21T18:59:03.501Z,7.60
2023-03-21T19:01:33.400Z,7.30
2023-03-21T19:04:23.771Z,9.83
2023-03-21T19:06:50.155Z,7.80
2023-03-21T19:09:29.371Z,6.50
2023-03-21T19:11:59.342Z,10.83
2023-03-21T19:14:27.232Z,7.10
2023-03-21T19:19:46.617Z,7.43
2023-03-21T19:22:14.622Z,7.60
2023-03-21T19:24:43.027Z,7.00
2023-03-21T19:27:12.017Z,8.50
2023-03-21T19:29:40.096Z,8.80
2023-03-21T19:32:09.216Z,8.40
2023-03-21T19:34:37.021Z,8.50
2023-03-21T19:37:05.216Z,8.03
2023-03-21T19:39:33.978Z,7.53
2023-03-21T19:42:15.690Z,9.23
2023-03-21T19:44:45.010Z,7.60
2023-03-21T19:47:23.510Z,9.73
2023-03-21T19:52:41.689Z,9.20
2023-03-21T19:55:10.776Z,10.00
2023-03-21T19:57:38.492Z,7.67
2023-03-21T20:00:11.647Z,9.97
2023-03-21T20:02:41.077Z,8.80
2023-03-21T20:05:09.773Z,8.13
2023-03-21T20:07:37.481Z,9.88
2023-03-21T20:10:06.498Z,7.67
2023-03-21T20:12:34.410Z,7.97
2023-03-21T20:15:16.693Z,8.97
2023-03-21T20:17:47.579Z,7.90
2023-03-21T20:20:17.810Z,14.80
2023-03-21T20:23:07.429Z,8.37
2023-03-21T20:25:36.003Z,10.67
2023-03-21T20:28:15.911Z,9.70
2023-03-21T20:30:49.219Z,8.73
2023-03-21T20:33:18.574Z,8.37
2023-03-21T20:36:29.401Z,9.30
2023-03-21T20:38:35.545Z,10.43
2023-03-21T20:41:06.512Z,8.60
2023-03-21T20:46:22.484Z,11.63
2023-03-21T20:48:51.592Z,9.40
2023-03-21T20:54:08.621Z,10.20
2023-03-21T20:56:36.520Z,12.00
2023-03-21T20:59:17.352Z,9.90
2023-03-21T21:01:48.559Z,10.13
2023-03-21T21:04:20.042Z,12.60
2023-03-21T21:06:48.338Z,10.97
2023-03-21T21:09:16.454Z,10.10
2023-03-21T21:14:33.376Z,11.73
2023-03-21T21:17:07.697Z,11.67
2023-03-21T21:19:49.935Z,10.40
2023-03-21T21:22:18.121Z,14.30
2023-03-21T21:24:46.121Z,13.80
2023-03-21T21:27:14.747Z,13.10
2023-03-21T21:29:43.464Z,12.40
2023-03-21T21:32:12.008Z,12.10
2023-03-21T21:34:39.769Z,14.43
2023-03-21T21:37:09.332Z,12.60
2023-03-21T21:39:38.029Z,11.27
2023-03-21T21:42:06.157Z,15.27
2023-03-21T21:44:34.059Z,13.03
2023-03-21T21:47:04.202Z,12.07
2023-03-21T21:49:32.309Z,12.53
2023-03-21T21:52:03.934Z,13.40
2023-03-21T21:54:34.317Z,11.97
2023-03-21T21:57:02.074Z,15.53
2023-03-21T21:59:29.933Z,12.40
2023-03-21T22:01:59.805Z,13.63
2023-03-21T22:04:28.579Z,13.83
2023-03-21T22:06:56.726Z,12.30
2023-03-21T22:09:24.773Z,15.17
2023-03-21T22:11:55.305Z,15.80
2023-03-21T22:14:26.631Z,12.50
2023-03-21T22:16:54.901Z,13.63
2023-03-21T22:19:22.733Z,13.30
2023-03-21T22:21:51.260Z,11.90
2023-03-21T22:24:19.242Z,12.77
2023-03-21T22:26:47.572Z,14.30
2023-03-21T22:29:17.753Z,12.83
2023-03-21T22:31:45.859Z,12.10
2023-03-21T22:34:13.588Z,15.83
2023-03-21T22:36:46.800Z,15.33
2023-03-21T22:39:14.876Z,15.10
2023-03-21T22:41:42.592Z,13.87
2023-03-21T22:44:10.295Z,14.93
2023-03-21T22:46:39.370Z,16.70
2023-03-21T22:49:07.191Z,16.60
2023-03-21T22:51:35.191Z,14.70
2023-03-21T22:54:02.910Z,14.70
2023-03-21T22:56:30.657Z,15.20
2023-03-21T22:59:00.153Z,15.15
2023-03-21T23:01:28.213Z,15.80
2023-03-21T23:03:57.544Z,15.57
2023-03-21T23:06:25.333Z,13.40
2023-03-21T23:08:53.099Z,13.97
2023-03-21T23:11:21.258Z,16.13
2023-03-21T23:13:58.712Z,14.73
2023-03-21T23:16:34.749Z,17.80
2023-03-21T23:19:04.471Z,16.33
2023-03-21T23:21:34.482Z,17.20
2023-03-21T23:24:02.290Z,18.90
2023-03-21T23:26:30.201Z,14.83
2023-03-21T23:28:58.443Z,16.67
2023-03-21T23:31:27.891Z,16.73
2023-03-21T23:33:58.645Z,18.93
2023-03-21T23:36:28.063Z,18.17
2023-03-21T23:38:55.837Z,16.67
2023-03-21T23:41:25.695Z,16.57
2023-03-21T23:43:53.451Z,19.03
2023-03-21T23:46:21.240Z,19.90
2023-03-21T23:48:49.429Z,17.03
2023-03-21T23:51:18.291Z,16.97
2023-03-21T23:53:47.719Z,17.67
2023-03-21T23:56:17.055Z,18.50
2023-03-21T23:58:45.021Z,22.97
